Terminal Aerodrome Forecast
Issued by NWS Cleveland, OH

Home | Current Version | Previous Version | Text Only | Print | Product List | Glossary Off
Versions: 1 2 3 4 5 6 7 8 9 10 11 12 13 14 15 16 17 18 19 20 21

000
FTUS41 KCLE 132359 AAA
TAFYNG
TAF AMD
KYNG 132359Z 1400/1424 31006KT P6SM SCT025
      TEMPO 1400/1403 BKN025
     FM140300 31005KT P6SM BKN045
     FM140500 29004KT P6SM SCT070=

USA.gov is the U.S. government's official web portal to all federal, state and local government web resources and services.